createdAt,value
2023-04-18T00:04:54.563Z,7.67
2023-04-18T00:15:17.096Z,7.81
2023-04-18T00:25:38.410Z,8.15
2023-04-18T00:36:00.035Z,8.15
2023-04-18T00:46:21.971Z,8.02
2023-04-18T00:56:44.839Z,7.95
2023-04-18T01:07:06.671Z,7.82
2023-04-18T01:17:29.626Z,7.73
2023-04-18T01:27:51.640Z,7.63
2023-04-18T01:38:13.021Z,7.61
2023-04-18T01:48:34.722Z,7.41
2023-04-18T01:58:56.460Z,7.25
2023-04-18T02:09:18.217Z,7.19
2023-04-18T02:19:39.715Z,7.21
2023-04-18T02:30:01.904Z,7.18
2023-04-18T02:40:23.642Z,7.18
2023-04-18T02:50:45.124Z,7.16
2023-04-18T03:01:07.256Z,7.18
2023-04-18T03:11:43.384Z,7.10
2023-04-18T03:22:06.166Z,7.16
2023-04-18T03:32:30.039Z,7.26
2023-04-18T03:42:51.650Z,7.33
2023-04-18T03:53:14.507Z,7.56
2023-04-18T04:03:36.502Z,7.69
2023-04-18T04:13:59.461Z,7.77
2023-04-18T04:24:29.123Z,7.85
2023-04-18T04:34:51.826Z,8.11
2023-04-18T04:45:14.593Z,8.26
2023-04-18T04:55:36.158Z,8.41
2023-04-18T05:06:00.049Z,8.56
2023-04-18T05:16:23.070Z,8.86
2023-04-18T05:26:44.635Z,9.57
2023-04-18T05:37:06.426Z,9.83
2023-04-18T05:47:28.679Z,9.83
2023-04-18T05:57:50.622Z,10.20
2023-04-18T06:08:12.302Z,10.32
2023-04-18T06:18:33.860Z,11.21
2023-04-18T06:28:56.006Z,11.84
2023-04-18T06:39:17.684Z,11.96
2023-04-18T06:49:39.280Z,11.78
2023-04-18T07:00:00.868Z,12.27
2023-04-18T07:10:22.521Z,12.18
2023-04-18T07:20:44.348Z,12.13
2023-04-18T07:31:06.661Z,12.19
2023-04-18T07:41:28.503Z,12.49
2023-04-18T07:51:50.262Z,13.23
2023-04-18T08:02:11.442Z,13.38
2023-04-18T08:12:32.710Z,13.36
2023-04-18T08:23:05.578Z,13.06
2023-04-18T08:33:29.899Z,13.29
2023-04-18T08:43:51.552Z,13.30
2023-04-18T08:54:13.071Z,13.82
2023-04-18T09:04:37.721Z,14.09
2023-04-18T09:15:16.377Z,13.72
2023-04-18T09:25:45.068Z,13.59
2023-04-18T09:36:20.256Z,14.31
2023-04-18T09:46:42.015Z,13.91
2023-04-18T09:57:08.609Z,14.02
2023-04-18T10:07:30.096Z,14.15
2023-04-18T10:18:03.674Z,14.37
2023-04-18T10:28:28.148Z,13.93
2023-04-18T10:45:24.146Z,14.29
2023-04-18T10:55:49.758Z,13.76
2023-04-18T11:06:11.373Z,13.02
2023-04-18T11:16:34.358Z,12.60
2023-04-18T11:26:57.071Z,11.70
2023-04-18T11:37:19.525Z,11.34
2023-04-18T11:47:42.755Z,11.24
2023-04-18T11:58:04.440Z,11.04
2023-04-18T12:08:26.890Z,10.72
2023-04-18T12:18:48.349Z,10.14
2023-04-18T12:29:09.977Z,9.62
2023-04-18T12:39:31.701Z,9.34
2023-04-18T12:49:57.200Z,9.06
2023-04-18T13:00:23.375Z,8.96
2023-04-18T13:10:48.683Z,8.85
2023-04-18T13:21:10.227Z,9.00
2023-04-18T13:31:31.859Z,8.87
2023-04-18T13:41:54.899Z,8.94
2023-04-18T13:52:16.427Z,9.15
2023-04-18T14:02:38.138Z,9.57
2023-04-18T14:12:41.564Z,9.92
2023-04-18T14:23:02.926Z,9.95
2023-04-18T14:33:24.825Z,9.97
2023-04-18T14:43:46.754Z,9.97
2023-04-18T14:54:08.160Z,10.10
2023-04-18T15:04:30.594Z,10.09
2023-04-18T15:14:53.903Z,10.06
2023-04-18T15:25:18.245Z,9.92
2023-04-18T15:35:40.052Z,9.78
2023-04-18T15:46:01.998Z,9.74
2023-04-18T15:56:26.919Z,9.77
2023-04-18T16:06:48.275Z,9.72
2023-04-18T16:17:09.731Z,9.77
2023-04-18T16:27:31.480Z,9.72
2023-04-18T16:37:53.302Z,9.69
2023-04-18T16:48:15.244Z,9.72
2023-04-18T16:58:36.851Z,9.84
2023-04-18T17:08:58.931Z,9.71
2023-04-18T17:19:21.342Z,9.70
2023-04-18T17:29:42.778Z,9.76
2023-04-18T17:40:09.885Z,9.65
2023-04-18T17:50:32.384Z,9.53
2023-04-18T18:00:54.466Z,9.49
2023-04-18T18:11:16.354Z,9.51
2023-04-18T18:21:37.738Z,9.50
2023-04-18T18:32:00.008Z,9.48
2023-04-18T18:42:21.409Z,9.50
2023-04-18T18:52:43.261Z,9.53
2023-04-18T19:03:05.518Z,9.62
2023-04-18T19:13:27.083Z,9.57
2023-04-18T19:23:48.969Z,9.61
2023-04-18T19:34:11.883Z,9.38
2023-04-18T19:44:33.486Z,9.27
2023-04-18T19:54:55.561Z,9.22
2023-04-18T20:05:18.595Z,9.19
2023-04-18T20:15:40.909Z,9.14
2023-04-18T20:26:03.518Z,9.13
2023-04-18T20:36:25.308Z,9.06
2023-04-18T20:46:46.969Z,8.92
2023-04-18T20:57:08.982Z,9.09
2023-04-18T21:07:31.199Z,9.13
2023-04-18T21:17:52.904Z,9.39
2023-04-18T21:28:14.695Z,9.39
2023-04-18T21:38:36.366Z,9.37
2023-04-18T21:48:57.858Z,9.03
2023-04-18T21:59:19.270Z,8.87
2023-04-18T22:09:41.104Z,8.45
2023-04-18T22:20:03.521Z,8.68
2023-04-18T22:30:25.116Z,8.94
2023-04-18T22:40:46.701Z,9.02
2023-04-18T22:51:08.093Z,8.95
2023-04-18T23:01:29.654Z,8.85
2023-04-18T23:11:51.417Z,8.90
2023-04-18T23:22:13.061Z,8.89
2023-04-18T23:32:34.776Z,8.90
2023-04-18T23:42:57.116Z,8.77
2023-04-18T23:53:18.836Z,8.77
